createdAt,value
2019-03-19T00:00:29.169Z,69.65
2019-03-19T00:02:58.722Z,69.76
2019-03-19T00:05:28.274Z,69.92
2019-03-19T00:07:57.821Z,69.99
2019-03-19T00:10:27.418Z,70.16
2019-03-19T00:12:56.954Z,70.32
2019-03-19T00:15:26.521Z,70.57
2019-03-19T00:17:56.042Z,70.78
2019-03-19T00:20:25.562Z,70.82
2019-03-19T00:22:55.434Z,70.92
2019-03-19T00:25:29.986Z,71.12
2019-03-19T00:27:56.718Z,71.30
2019-03-19T00:30:26.325Z,71.31
2019-03-19T00:32:55.946Z,71.33
2019-03-19T00:35:25.494Z,71.31
2019-03-19T00:37:55.119Z,71.40
2019-03-19T00:40:24.665Z,71.55
2019-03-19T00:42:54.235Z,71.58
2019-03-19T00:45:23.813Z,71.55
2019-03-19T00:47:53.329Z,71.42
2019-03-19T00:50:22.965Z,71.35
2019-03-19T00:52:52.504Z,71.33
2019-03-19T00:55:22.063Z,71.38
2019-03-19T00:57:51.617Z,71.48
2019-03-19T01:00:21.929Z,71.49
2019-03-19T01:02:51.546Z,71.53
2019-03-19T01:05:21.073Z,71.55
2019-03-19T01:07:50.677Z,71.66
2019-03-19T01:10:20.216Z,71.71
2019-03-19T01:12:49.729Z,71.88
2019-03-19T01:15:19.362Z,71.77
2019-03-19T01:17:48.894Z,71.75
2019-03-19T01:20:18.435Z,71.83
2019-03-19T01:22:47.990Z,71.86
2019-03-19T01:25:18.782Z,71.96
2019-03-19T01:27:48.443Z,72.10
2019-03-19T01:30:18.337Z,72.22
2019-03-19T01:32:47.899Z,72.40
2019-03-19T01:35:17.439Z,72.45
2019-03-19T01:37:47.117Z,72.53
2019-03-19T01:40:16.651Z,72.62
2019-03-19T01:42:46.203Z,72.81
2019-03-19T01:45:15.738Z,72.97
2019-03-19T01:47:45.282Z,73.35
2019-03-19T01:50:16.314Z,73.48
2019-03-19T01:52:45.859Z,73.56
2019-03-19T01:55:16.270Z,73.56
2019-03-19T01:57:45.812Z,73.39
2019-03-19T02:00:17.522Z,73.39
2019-03-19T02:02:47.023Z,73.48
2019-03-19T02:05:16.538Z,73.57
2019-03-19T02:07:46.095Z,73.45
2019-03-19T02:10:15.897Z,73.43
2019-03-19T02:12:45.515Z,73.30
2019-03-19T02:15:19.362Z,73.40
2019-03-19T02:17:49.181Z,73.58
2019-03-19T02:20:19.337Z,73.78
2019-03-19T02:22:48.915Z,73.88
2019-03-19T02:25:18.441Z,74.05
2019-03-19T02:27:47.963Z,74.06
2019-03-19T02:30:18.221Z,74.10
2019-03-19T02:32:47.841Z,74.26
2019-03-19T02:35:17.392Z,74.31
2019-03-19T02:37:46.992Z,74.52
2019-03-19T02:40:17.587Z,74.58
2019-03-19T02:42:47.107Z,74.78
2019-03-19T02:45:17.021Z,74.91
2019-03-19T02:47:46.829Z,74.88
2019-03-19T02:50:17.560Z,74.95
2019-03-19T02:52:47.221Z,75.31
2019-03-19T02:55:16.804Z,75.76
2019-03-19T02:57:46.361Z,76.00
2019-03-19T03:00:18.406Z,75.98
2019-03-19T03:02:47.979Z,75.80
2019-03-19T03:05:22.359Z,75.52
2019-03-19T03:07:51.949Z,75.38
2019-03-19T03:10:21.489Z,75.35
2019-03-19T03:12:51.029Z,75.27
2019-03-19T03:15:20.582Z,75.22
2019-03-19T03:17:50.112Z,75.14
2019-03-19T03:20:19.641Z,75.18
2019-03-19T03:22:49.175Z,75.24
2019-03-19T03:25:19.125Z,75.28
2019-03-19T03:27:48.661Z,75.32
2019-03-19T03:30:21.605Z,75.14
2019-03-19T03:32:51.315Z,75.04
2019-03-19T03:35:20.872Z,75.04
2019-03-19T03:37:50.372Z,74.97
2019-03-19T03:40:21.045Z,75.12
2019-03-19T03:42:50.623Z,75.22
2019-03-19T03:45:20.998Z,75.28
2019-03-19T03:47:50.607Z,75.33
2019-03-19T03:50:20.675Z,75.42
2019-03-19T03:52:50.230Z,75.45
2019-03-19T03:55:20.908Z,75.47
2019-03-19T03:57:50.425Z,75.60
2019-03-19T04:00:21.573Z,75.74
2019-03-19T04:02:51.145Z,75.84
2019-03-19T04:05:20.910Z,75.97
2019-03-19T04:07:50.461Z,76.14
2019-03-19T04:10:20.651Z,76.25
2019-03-19T04:12:50.184Z,76.40
2019-03-19T04:15:20.182Z,76.56
2019-03-19T04:17:49.773Z,76.72
2019-03-19T04:20:19.590Z,76.91
2019-03-19T04:22:49.137Z,77.22
2019-03-19T04:25:18.774Z,77.35
2019-03-19T04:27:48.307Z,77.35
2019-03-19T04:30:19.342Z,77.23
2019-03-19T04:32:48.900Z,77.10
2019-03-19T04:35:18.432Z,77.07
2019-03-19T04:37:48.063Z,77.12
2019-03-19T04:40:17.884Z,77.18
2019-03-19T04:42:47.558Z,77.29
2019-03-19T04:45:18.000Z,77.39
2019-03-19T04:47:47.513Z,77.44
2019-03-19T04:50:17.794Z,77.29
2019-03-19T04:52:47.620Z,77.14
2019-03-19T04:55:18.070Z,77.02
2019-03-19T04:57:47.634Z,76.91
2019-03-19T05:00:18.408Z,76.85
2019-03-19T05:02:48.094Z,76.94
2019-03-19T05:05:17.673Z,77.02
2019-03-19T05:07:47.242Z,77.06
2019-03-19T05:10:18.387Z,77.10
2019-03-19T05:12:48.007Z,77.17
2019-03-19T05:15:17.558Z,77.26
2019-03-19T05:17:47.101Z,77.29
2019-03-19T05:20:17.955Z,77.31
2019-03-19T05:22:47.511Z,77.35
2019-03-19T05:25:17.055Z,77.39
2019-03-19T05:27:46.604Z,77.39
2019-03-19T05:30:22.406Z,77.32
2019-03-19T05:32:51.976Z,77.18
2019-03-19T05:35:21.510Z,77.11
2019-03-19T05:37:51.062Z,76.99
2019-03-19T05:40:20.898Z,77.00
2019-03-19T05:42:50.440Z,76.93
2019-03-19T05:45:20.000Z,76.93
2019-03-19T05:47:49.542Z,76.94
2019-03-19T05:50:21.998Z,76.97
2019-03-19T05:52:51.548Z,76.94
2019-03-19T05:55:21.417Z,76.95
2019-03-19T05:57:51.014Z,77.04
2019-03-19T06:00:27.804Z,77.64
2019-03-19T06:02:57.353Z,77.93
2019-03-19T06:05:26.922Z,78.10
2019-03-19T06:07:56.558Z,78.11
2019-03-19T06:10:26.273Z,78.05
2019-03-19T06:12:55.898Z,77.95
2019-03-19T06:15:25.449Z,77.98
2019-03-19T06:17:54.980Z,77.97
2019-03-19T06:20:24.524Z,77.92
2019-03-19T06:22:54.353Z,77.85
2019-03-19T06:25:23.918Z,77.81
2019-03-19T06:28:00.313Z,77.72
2019-03-19T06:30:25.796Z,77.65
2019-03-19T06:32:55.366Z,77.76
2019-03-19T06:35:24.988Z,77.72
2019-03-19T06:37:54.639Z,77.65
2019-03-19T06:40:24.548Z,77.69
2019-03-19T06:42:54.065Z,77.58
2019-03-19T06:45:23.762Z,77.73
2019-03-19T06:47:53.294Z,77.93
2019-03-19T06:50:23.115Z,78.06
2019-03-19T06:52:52.655Z,78.17
2019-03-19T06:55:22.354Z,78.08
2019-03-19T06:57:51.978Z,78.03
2019-03-19T07:00:27.675Z,78.08
2019-03-19T07:02:57.210Z,78.07
2019-03-19T07:05:26.755Z,77.92
2019-03-19T07:07:56.299Z,77.78
2019-03-19T07:10:25.847Z,77.72
2019-03-19T07:12:55.407Z,77.53
2019-03-19T07:15:25.188Z,77.43
2019-03-19T07:17:54.957Z,77.32
2019-03-19T07:20:29.242Z,77.21
2019-03-19T07:22:58.782Z,77.10
2019-03-19T07:25:28.313Z,76.93
2019-03-19T07:27:57.849Z,76.96
2019-03-19T07:30:28.128Z,76.67
2019-03-19T07:32:57.719Z,76.58
2019-03-19T07:35:27.339Z,76.32
2019-03-19T07:37:56.865Z,76.15
2019-03-19T07:40:26.425Z,75.85
2019-03-19T07:42:55.972Z,75.59
2019-03-19T07:45:26.488Z,75.27
2019-03-19T07:47:56.020Z,74.74
2019-03-19T07:50:25.730Z,74.38
2019-03-19T07:52:55.418Z,74.00
2019-03-19T07:55:24.947Z,73.55
2019-03-19T07:57:54.552Z,73.18
2019-03-19T08:00:24.328Z,72.98
2019-03-19T08:02:53.896Z,72.30
2019-03-19T08:05:32.548Z,71.77
2019-03-19T08:07:54.744Z,70.93
2019-03-19T08:10:24.360Z,70.62
2019-03-19T08:12:53.916Z,70.04
2019-03-19T08:15:23.620Z,69.94
2019-03-19T08:17:53.155Z,69.41
2019-03-19T08:20:22.686Z,68.95
2019-03-19T08:22:52.219Z,68.70
2019-03-19T08:25:21.742Z,68.41
2019-03-19T08:27:51.301Z,68.22
2019-03-19T08:30:25.845Z,67.82
2019-03-19T08:32:55.342Z,67.26
2019-03-19T08:35:24.883Z,66.73
2019-03-19T08:37:54.571Z,66.69
2019-03-19T08:40:24.113Z,66.43
2019-03-19T08:42:53.640Z,66.20
2019-03-19T08:45:27.493Z,66.33
2019-03-19T08:47:57.043Z,66.70
2019-03-19T08:50:27.051Z,66.12
2019-03-19T08:52:56.610Z,66.00
2019-03-19T08:55:26.215Z,65.11
2019-03-19T08:57:55.752Z,65.70
2019-03-19T09:00:27.023Z,66.02
2019-03-19T09:02:56.556Z,66.06
2019-03-19T09:05:26.114Z,65.84
2019-03-19T09:07:55.664Z,66.12
2019-03-19T09:10:25.216Z,65.98
2019-03-19T09:12:54.780Z,65.82
2019-03-19T09:15:29.582Z,64.99
2019-03-19T09:17:59.116Z,64.71
2019-03-19T09:20:28.715Z,63.87
2019-03-19T09:22:58.531Z,62.88
2019-03-19T09:25:28.070Z,61.84
2019-03-19T09:27:57.637Z,61.89
2019-03-19T09:30:27.281Z,60.20
2019-03-19T09:32:56.815Z,60.34
2019-03-19T09:35:26.565Z,59.99
2019-03-19T09:37:58.881Z,57.82
2019-03-19T09:40:27.503Z,57.02
2019-03-19T09:42:57.048Z,56.25
2019-03-19T09:45:26.588Z,55.61
2019-03-19T09:47:56.129Z,55.43
2019-03-19T09:50:27.301Z,54.15
2019-03-19T09:52:56.929Z,54.69
2019-03-19T09:55:26.453Z,54.71
2019-03-19T09:57:56.007Z,52.29
2019-03-19T10:00:25.817Z,52.63
2019-03-19T10:02:55.365Z,50.85
2019-03-19T10:05:24.981Z,51.59
2019-03-19T10:07:55.688Z,52.38
2019-03-19T10:10:25.769Z,52.52
2019-03-19T10:12:55.363Z,51.69
2019-03-19T10:15:24.965Z,50.62
2019-03-19T10:17:54.505Z,49.00
2019-03-19T10:20:26.647Z,49.01
2019-03-19T10:22:56.283Z,49.17
2019-03-19T10:25:25.914Z,49.34
2019-03-19T10:27:55.480Z,46.79
2019-03-19T10:30:28.097Z,47.15
2019-03-19T10:32:57.617Z,46.49
2019-03-19T10:35:27.165Z,46.72
2019-03-19T10:37:56.719Z,44.58
2019-03-19T10:40:26.414Z,45.37
2019-03-19T10:42:55.945Z,46.15
2019-03-19T10:45:25.857Z,48.14
2019-03-19T10:47:55.427Z,47.21
2019-03-19T10:50:26.305Z,45.97
2019-03-19T10:52:55.876Z,45.56
2019-03-19T10:55:25.408Z,45.93
2019-03-19T10:57:54.956Z,46.43
2019-03-19T11:00:27.117Z,45.95
2019-03-19T11:02:56.718Z,45.94
2019-03-19T11:05:27.177Z,46.56
2019-03-19T11:07:56.713Z,46.69
2019-03-19T11:10:26.320Z,47.80
2019-03-19T11:12:55.849Z,46.50
2019-03-19T11:15:27.205Z,48.65
2019-03-19T11:17:56.808Z,46.67
2019-03-19T11:20:26.353Z,47.83
2019-03-19T11:22:55.912Z,48.00
2019-03-19T11:25:29.711Z,48.02
2019-03-19T11:27:59.249Z,48.53
2019-03-19T11:30:32.767Z,49.24
2019-03-19T11:33:02.358Z,49.84
2019-03-19T11:35:31.921Z,49.84
2019-03-19T11:38:01.540Z,50.31
2019-03-19T11:40:31.083Z,49.94
2019-03-19T11:43:00.636Z,49.57
2019-03-19T11:45:30.281Z,49.32
2019-03-19T11:47:59.833Z,50.20
2019-03-19T11:50:33.638Z,48.59
2019-03-19T11:53:03.321Z,48.18
2019-03-19T11:55:32.869Z,48.65
2019-03-19T11:58:02.420Z,49.10
2019-03-19T12:00:41.123Z,49.41
2019-03-19T12:03:15.788Z,49.44
2019-03-19T12:05:42.535Z,48.91
2019-03-19T12:08:12.342Z,49.50
2019-03-19T12:10:42.334Z,49.36
2019-03-19T12:13:11.859Z,49.66
2019-03-19T12:15:41.481Z,50.56
2019-03-19T12:18:11.116Z,50.13
2019-03-19T12:20:40.658Z,50.43
2019-03-19T12:23:10.177Z,49.78
2019-03-19T12:25:39.719Z,49.80
2019-03-19T12:28:09.277Z,49.18
2019-03-19T12:30:39.032Z,49.48
2019-03-19T12:33:08.580Z,49.79
2019-03-19T12:35:38.117Z,48.89
2019-03-19T12:38:07.666Z,49.52
2019-03-19T12:40:37.702Z,49.38
2019-03-19T12:43:07.576Z,49.24
2019-03-19T12:45:37.141Z,49.72
2019-03-19T12:48:06.772Z,50.60
2019-03-19T12:50:41.324Z,50.22
2019-03-19T12:53:11.117Z,50.36
2019-03-19T12:55:41.078Z,50.35
2019-03-19T12:58:12.723Z,50.11
2019-03-19T13:00:45.141Z,49.95
2019-03-19T13:03:14.705Z,50.48
2019-03-19T13:05:44.243Z,50.08
2019-03-19T13:08:13.784Z,50.16
2019-03-19T13:10:43.322Z,50.02
2019-03-19T13:13:12.844Z,49.71
2019-03-19T13:15:42.421Z,50.74
2019-03-19T13:18:11.990Z,49.83
2019-03-19T13:20:41.556Z,50.87
2019-03-19T13:23:11.382Z,49.62
2019-03-19T13:25:41.528Z,50.26
2019-03-19T13:28:11.105Z,49.78
2019-03-19T13:30:45.362Z,49.41
2019-03-19T13:33:11.890Z,49.29
2019-03-19T13:35:41.418Z,49.76
2019-03-19T13:38:12.733Z,49.63
2019-03-19T13:40:42.402Z,50.37
2019-03-19T13:43:11.954Z,49.77
2019-03-19T13:45:41.511Z,49.28
2019-03-19T13:48:11.084Z,49.25
2019-03-19T13:50:40.711Z,48.15
2019-03-19T13:53:10.270Z,48.19
2019-03-19T13:55:39.821Z,48.71
2019-03-19T13:58:09.392Z,48.95
2019-03-19T14:00:38.942Z,48.77
2019-03-19T14:03:08.475Z,48.89
2019-03-19T14:05:38.017Z,49.23
2019-03-19T14:08:07.561Z,48.90
2019-03-19T14:10:37.100Z,49.15
2019-03-19T14:13:06.791Z,48.73
2019-03-19T14:15:36.368Z,48.54
2019-03-19T14:18:06.482Z,47.36
2019-03-19T14:20:36.071Z,46.85
2019-03-19T14:23:05.662Z,47.29
2019-03-19T14:25:35.209Z,46.48
2019-03-19T14:28:04.859Z,46.72
2019-03-19T14:30:34.518Z,47.97
2019-03-19T14:33:04.073Z,46.26
2019-03-19T14:35:37.693Z,45.85
2019-03-19T14:38:06.806Z,46.32
2019-03-19T14:40:36.318Z,46.83
2019-03-19T14:43:06.119Z,46.13
2019-03-19T14:45:35.674Z,46.70
2019-03-19T14:48:06.205Z,46.58
2019-03-19T14:50:36.037Z,46.21
2019-03-19T14:53:05.744Z,45.79
2019-03-19T14:55:35.755Z,46.41
2019-03-19T14:58:05.579Z,45.68
2019-03-19T15:00:35.545Z,45.40
2019-03-19T15:03:05.198Z,45.25
2019-03-19T15:05:34.741Z,45.76
2019-03-19T15:08:04.299Z,45.76
2019-03-19T15:10:33.852Z,44.42
2019-03-19T15:13:03.394Z,44.08
2019-03-19T15:15:32.954Z,44.83
2019-03-19T15:18:02.654Z,44.80
2019-03-19T15:20:32.194Z,44.60
2019-03-19T15:23:01.722Z,44.16
2019-03-19T15:25:31.284Z,44.75
2019-03-19T15:28:00.817Z,44.72
2019-03-19T15:30:30.380Z,43.07
2019-03-19T15:32:59.930Z,43.90
2019-03-19T15:35:29.531Z,44.80
2019-03-19T15:37:59.099Z,45.15
2019-03-19T15:40:28.634Z,44.49
2019-03-19T15:43:00.687Z,43.67
2019-03-19T15:45:31.418Z,43.80
2019-03-19T15:48:00.926Z,43.88
2019-03-19T15:50:30.465Z,44.36
2019-03-19T15:53:00.044Z,44.54
2019-03-19T15:55:29.596Z,45.38
2019-03-19T15:57:59.116Z,45.82
2019-03-19T16:00:28.693Z,44.95
2019-03-19T16:02:58.282Z,45.35
2019-03-19T16:05:27.866Z,45.52
2019-03-19T16:07:57.694Z,45.59
2019-03-19T16:10:27.228Z,46.14
2019-03-19T16:12:56.780Z,45.74
2019-03-19T16:15:26.327Z,45.54
2019-03-19T16:17:55.896Z,45.97
2019-03-19T16:20:25.452Z,45.78
2019-03-19T16:22:55.054Z,45.70
2019-03-19T16:25:24.893Z,45.50
2019-03-19T16:27:54.446Z,45.57
2019-03-19T16:30:24.036Z,45.64
2019-03-19T16:32:53.564Z,45.58
2019-03-19T16:35:23.168Z,45.97
2019-03-19T16:37:52.692Z,46.62
2019-03-19T16:40:25.811Z,46.92
2019-03-19T16:42:55.341Z,47.54
2019-03-19T16:45:24.900Z,47.85
2019-03-19T16:47:54.474Z,48.05
2019-03-19T16:50:24.805Z,47.99
2019-03-19T16:52:54.335Z,48.16
2019-03-19T16:55:23.976Z,48.51
2019-03-19T16:57:53.608Z,48.89
2019-03-19T17:00:27.908Z,48.95
2019-03-19T17:02:57.504Z,48.95
2019-03-19T17:05:27.043Z,49.11
2019-03-19T17:07:56.598Z,49.56
2019-03-19T17:10:31.616Z,50.00
2019-03-19T17:13:01.244Z,49.94
2019-03-19T17:15:30.831Z,48.80
2019-03-19T17:18:00.362Z,49.15
2019-03-19T17:20:29.890Z,49.66
2019-03-19T17:22:59.555Z,49.72
2019-03-19T17:25:29.156Z,49.61
2019-03-19T17:27:58.785Z,50.09
2019-03-19T17:30:38.018Z,50.63
2019-03-19T17:33:07.595Z,50.81
2019-03-19T17:35:37.163Z,51.28
2019-03-19T17:38:08.850Z,51.78
2019-03-19T17:40:41.678Z,52.24
2019-03-19T17:43:09.299Z,52.44
2019-03-19T17:45:38.821Z,52.72
2019-03-19T17:48:15.970Z,53.08
2019-03-19T17:50:43.692Z,53.13
2019-03-19T17:53:13.208Z,53.34
2019-03-19T17:55:42.803Z,53.66
2019-03-19T17:58:12.427Z,53.82
2019-03-19T18:00:52.465Z,54.12
2019-03-19T18:03:21.987Z,54.38
2019-03-19T18:05:51.542Z,54.53
2019-03-19T18:08:21.116Z,54.71
2019-03-19T18:10:50.638Z,54.95
2019-03-19T18:13:20.498Z,55.27
2019-03-19T18:15:50.030Z,55.48
2019-03-19T18:18:19.611Z,55.60
2019-03-19T18:20:49.241Z,55.77
2019-03-19T18:23:18.779Z,55.89
2019-03-19T18:25:48.744Z,55.92
2019-03-19T18:28:18.597Z,55.93
2019-03-19T18:30:48.172Z,55.96
2019-03-19T18:33:18.082Z,56.08
2019-03-19T18:35:47.611Z,56.19
2019-03-19T18:38:17.158Z,56.35
2019-03-19T18:40:46.689Z,56.45
2019-03-19T18:43:16.235Z,56.45
2019-03-19T18:45:45.779Z,56.46
2019-03-19T18:48:15.624Z,56.48
2019-03-19T18:50:45.183Z,56.44
2019-03-19T18:53:14.772Z,56.70
2019-03-19T18:55:44.391Z,56.88
2019-03-19T18:58:13.908Z,56.83
2019-03-19T19:00:43.470Z,56.90
2019-03-19T19:03:12.996Z,57.16
2019-03-19T19:05:42.520Z,57.46
2019-03-19T19:08:12.054Z,57.82
2019-03-19T19:10:41.683Z,58.03
2019-03-19T19:13:11.222Z,58.45
2019-03-19T19:15:40.818Z,59.00
2019-03-19T19:18:10.350Z,59.51
2019-03-19T19:20:39.938Z,59.84
2019-03-19T19:23:09.481Z,60.12
2019-03-19T19:25:39.017Z,60.36
2019-03-19T19:28:08.653Z,60.59
2019-03-19T19:30:38.466Z,60.80
2019-03-19T19:33:07.997Z,60.96
2019-03-19T19:35:37.581Z,61.04
2019-03-19T19:38:07.419Z,60.91
2019-03-19T19:40:36.964Z,60.89
2019-03-19T19:43:06.785Z,60.75
2019-03-19T19:45:36.407Z,60.86
2019-03-19T19:48:06.231Z,61.03
2019-03-19T19:50:35.909Z,60.93
2019-03-19T19:53:05.729Z,60.82
2019-03-19T19:55:35.279Z,60.68
2019-03-19T19:58:05.249Z,60.40
2019-03-19T20:00:34.862Z,60.27
2019-03-19T20:03:12.181Z,60.16
2019-03-19T20:05:36.119Z,60.24
2019-03-19T20:08:06.245Z,60.19
2019-03-19T20:10:35.795Z,60.28
2019-03-19T20:13:05.674Z,60.38
2019-03-19T20:15:35.367Z,60.57
2019-03-19T20:18:05.337Z,60.46
2019-03-19T20:20:35.842Z,60.28
2019-03-19T20:23:05.732Z,60.29
2019-03-19T20:25:35.566Z,60.33
2019-03-19T20:28:05.729Z,60.30
2019-03-19T20:30:35.466Z,60.29
2019-03-19T20:33:05.581Z,60.34
2019-03-19T20:35:35.368Z,60.39
2019-03-19T20:38:04.925Z,60.64
2019-03-19T20:40:34.454Z,60.82
2019-03-19T20:43:04.046Z,60.88
2019-03-19T20:45:33.623Z,60.96
2019-03-19T20:48:04.324Z,61.12
2019-03-19T20:50:41.604Z,61.32
2019-03-19T20:53:11.818Z,61.57
2019-03-19T20:55:41.699Z,61.72
2019-03-19T20:58:11.471Z,62.09
2019-03-19T21:00:41.114Z,62.43
2019-03-19T21:03:11.166Z,62.66
2019-03-19T21:05:41.281Z,62.77
2019-03-19T21:08:11.287Z,62.97
2019-03-19T21:10:41.531Z,63.10
2019-03-19T21:13:11.621Z,63.22
2019-03-19T21:15:41.730Z,63.52
2019-03-19T21:18:11.735Z,63.63
2019-03-19T21:20:42.023Z,63.81
2019-03-19T21:23:12.085Z,63.85
2019-03-19T21:25:42.217Z,63.92
2019-03-19T21:28:14.463Z,64.02
2019-03-19T21:30:43.873Z,63.94
2019-03-19T21:33:13.928Z,63.98
2019-03-19T21:35:44.278Z,64.03
2019-03-19T21:38:14.379Z,64.46
2019-03-19T21:40:44.496Z,64.82
2019-03-19T21:43:14.375Z,65.03
2019-03-19T21:45:44.125Z,65.24
2019-03-19T21:48:14.389Z,65.23
2019-03-19T21:50:43.976Z,65.39
2019-03-19T21:53:14.145Z,65.65
2019-03-19T21:55:43.822Z,65.99
2019-03-19T21:58:13.689Z,66.11
2019-03-19T22:00:43.839Z,66.31
2019-03-19T22:03:13.418Z,66.43
2019-03-19T22:05:43.365Z,66.53
2019-03-19T22:08:12.962Z,66.42
2019-03-19T22:10:42.818Z,66.53
2019-03-19T22:13:12.882Z,66.54
2019-03-19T22:15:42.993Z,66.54
2019-03-19T22:18:12.826Z,66.57
2019-03-19T22:20:42.724Z,66.60
2019-03-19T22:23:12.679Z,66.67
2019-03-19T22:25:42.881Z,66.69
2019-03-19T22:28:13.103Z,66.77
2019-03-19T22:30:43.112Z,66.75
2019-03-19T22:33:13.664Z,66.69
2019-03-19T22:35:44.030Z,66.63
2019-03-19T22:38:14.505Z,66.60
2019-03-19T22:40:44.678Z,66.76
2019-03-19T22:43:14.647Z,66.81
2019-03-19T22:45:44.623Z,66.85
2019-03-19T22:48:14.706Z,66.96
2019-03-19T22:50:46.171Z,66.98
2019-03-19T22:53:16.868Z,67.09
2019-03-19T22:55:48.608Z,67.21
2019-03-19T22:58:18.355Z,67.42
2019-03-19T23:00:50.455Z,67.60
2019-03-19T23:03:20.455Z,67.76
2019-03-19T23:05:50.818Z,67.92
2019-03-19T23:08:21.028Z,67.89
2019-03-19T23:10:51.293Z,67.93
2019-03-19T23:13:21.147Z,68.07
2019-03-19T23:15:51.069Z,68.03
2019-03-19T23:18:20.588Z,68.12
2019-03-19T23:20:50.853Z,68.20
2019-03-19T23:23:20.418Z,68.37
2019-03-19T23:25:50.413Z,68.39
2019-03-19T23:28:20.471Z,68.40
2019-03-19T23:30:50.327Z,68.39
2019-03-19T23:33:20.390Z,68.32
2019-03-19T23:35:50.509Z,68.40
2019-03-19T23:38:20.325Z,68.25
2019-03-19T23:40:49.970Z,68.30
2019-03-19T23:43:19.497Z,68.37
2019-03-19T23:45:49.795Z,68.35
2019-03-19T23:48:19.484Z,68.44
2019-03-19T23:50:49.751Z,68.54
2019-03-19T23:53:19.374Z,68.63
2019-03-19T23:55:49.784Z,68.78
2019-03-19T23:58:19.414Z,68.91
